createdAt,value
2023-01-20T00:01:43.192Z,17.50
2023-01-20T00:04:10.795Z,15.45
2023-01-20T00:06:38.333Z,18.70
2023-01-20T00:09:06.353Z,18.00
2023-01-20T00:11:34.160Z,16.63
2023-01-20T00:14:03.144Z,17.30
2023-01-20T00:16:31.950Z,17.27
2023-01-20T00:19:01.011Z,16.80
2023-01-20T00:21:29.038Z,18.23
2023-01-20T00:23:56.886Z,16.38
2023-01-20T00:26:25.591Z,16.58
2023-01-20T00:28:54.923Z,16.25
2023-01-20T00:31:25.244Z,16.65
2023-01-20T00:33:53.807Z,15.40
2023-01-20T00:36:23.881Z,15.80
2023-01-20T00:38:51.484Z,18.35
2023-01-20T00:41:19.227Z,16.13
2023-01-20T00:43:46.874Z,16.38
2023-01-20T00:46:14.509Z,15.40
2023-01-20T00:48:42.196Z,16.33
2023-01-20T00:51:10.381Z,15.43
2023-01-20T00:53:39.284Z,15.13
2023-01-20T00:56:07.440Z,15.20
2023-01-20T00:58:34.953Z,17.25
2023-01-20T01:01:02.500Z,16.33
2023-01-20T01:03:30.345Z,16.90
2023-01-20T01:06:07.058Z,16.10
2023-01-20T01:08:34.650Z,17.08
2023-01-20T01:11:04.026Z,17.90
2023-01-20T01:13:32.183Z,17.58
2023-01-20T01:15:59.812Z,16.02
2023-01-20T01:18:27.334Z,16.38
2023-01-20T01:20:54.795Z,16.67
2023-01-20T01:23:22.391Z,15.90
2023-01-20T01:25:49.850Z,15.68
2023-01-20T01:28:18.659Z,14.07
2023-01-20T01:30:46.274Z,16.42
2023-01-20T01:33:13.738Z,16.08
2023-01-20T01:35:42.063Z,15.23
2023-01-20T01:38:09.583Z,16.55
2023-01-20T01:40:37.032Z,15.82
2023-01-20T01:43:04.543Z,14.65
2023-01-20T01:45:34.629Z,15.00
2023-01-20T01:48:05.361Z,15.23
2023-01-20T01:50:38.644Z,14.98
2023-01-20T01:55:36.006Z,15.73
2023-01-20T01:58:04.086Z,15.23
2023-01-20T02:00:31.589Z,14.63
2023-01-20T02:03:00.499Z,13.73
2023-01-20T02:05:29.561Z,15.45
2023-01-20T02:07:58.997Z,15.35
2023-01-20T02:10:26.567Z,16.63
2023-01-20T02:12:54.313Z,16.45
2023-01-20T02:15:28.411Z,15.10
2023-01-20T02:18:16.971Z,16.42
2023-01-20T02:21:07.491Z,15.68
2023-01-20T02:23:53.942Z,16.67
2023-01-20T02:26:38.021Z,16.30
2023-01-20T02:29:21.875Z,16.58
2023-01-20T02:32:22.973Z,15.63
2023-01-20T02:34:55.210Z,15.82
2023-01-20T02:37:26.202Z,17.60
2023-01-20T02:40:01.393Z,17.90
2023-01-20T02:42:35.460Z,17.90
2023-01-20T02:45:06.415Z,16.60
2023-01-20T02:47:38.495Z,17.45
2023-01-20T02:50:09.077Z,15.45
2023-01-20T02:52:39.416Z,15.88
2023-01-20T02:55:10.349Z,15.88
2023-01-20T02:57:42.925Z,15.45
2023-01-20T03:00:14.014Z,14.93
2023-01-20T03:02:45.587Z,16.98
2023-01-20T03:05:17.155Z,15.80
2023-01-20T03:07:45.805Z,15.32
2023-01-20T03:10:17.354Z,16.70
2023-01-20T03:12:47.630Z,15.32
2023-01-20T03:15:16.181Z,14.73
2023-01-20T03:17:45.248Z,15.70
2023-01-20T03:20:13.367Z,14.05
2023-01-20T03:22:40.928Z,16.23
2023-01-20T03:25:10.572Z,16.00
2023-01-20T03:27:38.328Z,15.98
2023-01-20T03:30:07.868Z,15.13
2023-01-20T03:32:35.452Z,15.30
2023-01-20T03:35:04.520Z,14.20
2023-01-20T03:37:32.015Z,14.70
2023-01-20T03:39:59.609Z,14.48
2023-01-20T03:42:30.978Z,15.90
2023-01-20T03:45:04.786Z,15.73
2023-01-20T03:47:44.990Z,15.55
2023-01-20T03:50:19.279Z,16.05
2023-01-20T03:52:51.687Z,16.05
2023-01-20T03:55:24.133Z,15.18
2023-01-20T03:57:55.204Z,15.95
2023-01-20T04:00:25.051Z,15.02
2023-01-20T04:02:54.757Z,15.38
2023-01-20T04:05:23.713Z,12.82
2023-01-20T04:07:51.299Z,14.63
2023-01-20T04:10:19.314Z,14.95
2023-01-20T04:12:46.808Z,14.20
2023-01-20T04:15:14.782Z,13.88
2023-01-20T04:17:42.559Z,14.93
2023-01-20T04:20:11.360Z,15.32
2023-01-20T04:22:46.999Z,13.38
2023-01-20T04:25:16.630Z,11.88
2023-01-20T04:27:44.485Z,14.75
2023-01-20T04:30:14.257Z,15.60
2023-01-20T04:32:41.766Z,13.18
2023-01-20T04:35:11.195Z,13.38
2023-01-20T04:37:38.653Z,14.25
2023-01-20T04:40:08.927Z,12.57
2023-01-20T04:42:36.469Z,12.25
2023-01-20T04:45:04.239Z,14.80
2023-01-20T04:47:31.949Z,15.52
2023-01-20T04:49:59.455Z,16.13
2023-01-20T04:52:26.984Z,15.27
2023-01-20T04:54:54.516Z,18.88
2023-01-20T04:57:23.379Z,15.57
2023-01-20T04:59:50.873Z,13.70
2023-01-20T05:02:18.490Z,18.13
2023-01-20T05:04:46.125Z,15.10
2023-01-20T05:07:13.656Z,15.57
2023-01-20T05:09:41.124Z,14.80
2023-01-20T05:12:08.675Z,13.05
2023-01-20T05:14:37.462Z,13.40
2023-01-20T05:17:04.997Z,15.25
2023-01-20T05:19:32.460Z,12.55
2023-01-20T05:22:00.358Z,14.65
2023-01-20T05:24:27.811Z,12.93
2023-01-20T05:26:55.320Z,12.45
2023-01-20T05:29:22.899Z,15.02
2023-01-20T05:31:51.686Z,14.00
2023-01-20T05:34:19.155Z,14.43
2023-01-20T05:36:46.726Z,13.13
2023-01-20T05:39:14.236Z,13.63
2023-01-20T05:41:41.731Z,14.55
2023-01-20T05:44:09.212Z,13.88
2023-01-20T05:46:36.713Z,12.60
2023-01-20T05:49:05.491Z,13.43
2023-01-20T05:51:33.087Z,14.25
2023-01-20T05:54:00.575Z,14.70
2023-01-20T05:56:28.058Z,12.38
2023-01-20T05:58:55.965Z,15.30
2023-01-20T06:01:24.035Z,16.77
2023-01-20T06:03:51.647Z,14.32
2023-01-20T06:06:20.621Z,14.75
2023-01-20T06:08:49.802Z,15.20
2023-01-20T06:11:18.009Z,14.45
2023-01-20T06:13:48.967Z,14.35
2023-01-20T06:16:17.367Z,15.00
2023-01-20T06:18:44.910Z,13.27
2023-01-20T06:21:12.747Z,13.15
2023-01-20T06:23:41.719Z,13.75
2023-01-20T06:26:11.921Z,28.17
2023-01-20T06:28:39.428Z,47.22
2023-01-20T06:31:08.955Z,17.20
2023-01-20T06:33:36.551Z,17.60
2023-01-20T06:36:05.304Z,15.45
2023-01-20T06:38:34.294Z,18.10
2023-01-20T06:41:05.033Z,15.20
2023-01-20T06:43:33.913Z,14.00
2023-01-20T06:46:01.591Z,16.10
2023-01-20T06:48:29.280Z,15.48
2023-01-20T06:51:01.461Z,14.57
2023-01-20T06:53:28.947Z,13.90
2023-01-20T06:55:57.068Z,16.40
2023-01-20T06:58:26.856Z,17.15
2023-01-20T07:00:54.640Z,13.77
2023-01-20T07:03:22.342Z,14.30
2023-01-20T07:05:55.256Z,14.57
2023-01-20T07:08:22.997Z,15.32
2023-01-20T07:10:50.448Z,12.57
2023-01-20T07:13:17.943Z,12.75
2023-01-20T07:15:46.813Z,14.07
2023-01-20T07:18:14.324Z,13.77
2023-01-20T07:20:43.247Z,14.27
2023-01-20T07:23:10.948Z,14.15
2023-01-20T07:25:39.508Z,14.45
2023-01-20T07:28:07.403Z,12.15
2023-01-20T07:30:34.915Z,14.43
2023-01-20T07:33:05.508Z,13.55
2023-01-20T07:35:33.016Z,13.10
2023-01-20T07:38:00.588Z,13.85
2023-01-20T07:40:28.052Z,13.40
2023-01-20T07:42:55.513Z,14.65
2023-01-20T07:45:22.976Z,16.65
2023-01-20T07:47:50.427Z,20.38
2023-01-20T07:50:19.244Z,15.35
2023-01-20T07:52:46.708Z,14.27
2023-01-20T07:55:14.596Z,14.18
2023-01-20T07:57:42.242Z,13.75
2023-01-20T08:00:10.987Z,15.63
2023-01-20T08:02:39.148Z,14.48
2023-01-20T08:05:10.488Z,13.80
2023-01-20T08:07:39.331Z,15.32
2023-01-20T08:10:07.910Z,13.57
2023-01-20T08:12:35.440Z,14.05
2023-01-20T08:15:02.952Z,13.43
2023-01-20T08:17:30.411Z,14.80
2023-01-20T08:19:58.967Z,15.88
2023-01-20T08:22:26.749Z,16.05
2023-01-20T08:24:55.504Z,13.98
2023-01-20T08:27:22.939Z,11.98
2023-01-20T08:29:50.362Z,14.55
2023-01-20T08:32:17.828Z,15.23
2023-01-20T08:34:45.383Z,15.65
2023-01-20T08:37:12.906Z,18.08
2023-01-20T08:39:40.367Z,17.65
2023-01-20T08:42:09.165Z,24.08
2023-01-20T08:44:36.627Z,15.05
2023-01-20T08:47:04.462Z,17.70
2023-01-20T08:49:32.217Z,19.38
2023-01-20T08:51:59.712Z,25.60
2023-01-20T08:54:29.313Z,25.92
2023-01-20T08:56:56.808Z,25.80
2023-01-20T08:59:25.576Z,23.90
2023-01-20T09:01:53.041Z,14.57
2023-01-20T09:04:20.494Z,17.98
2023-01-20T09:06:50.194Z,26.52
2023-01-20T09:09:19.320Z,21.55
2023-01-20T09:11:51.151Z,22.25
2023-01-20T09:14:19.089Z,21.38
2023-01-20T09:16:48.471Z,27.40
2023-01-20T09:19:16.011Z,25.27
2023-01-20T09:21:43.619Z,21.98
2023-01-20T09:24:17.688Z,22.55
2023-01-20T09:26:45.317Z,22.65
2023-01-20T09:29:15.346Z,24.00
2023-01-20T09:31:45.238Z,22.77
2023-01-20T09:34:19.057Z,19.77
2023-01-20T09:36:46.918Z,19.92
2023-01-20T09:39:32.173Z,27.70
2023-01-20T09:42:22.423Z,19.20
2023-01-20T09:44:53.395Z,28.92
2023-01-20T09:47:31.369Z,19.17
2023-01-20T09:50:27.620Z,22.02
2023-01-20T09:53:04.748Z,22.35
2023-01-20T09:55:40.685Z,22.55
2023-01-20T09:58:13.381Z,22.17
2023-01-20T10:00:42.314Z,26.27
2023-01-20T10:03:14.588Z,25.63
2023-01-20T10:05:43.946Z,20.67
2023-01-20T10:08:14.745Z,23.00
2023-01-20T10:10:48.626Z,18.70
2023-01-20T10:13:20.268Z,18.85
2023-01-20T10:15:50.071Z,16.45
2023-01-20T10:18:18.922Z,16.88
2023-01-20T10:20:50.121Z,18.05
2023-01-20T10:23:21.459Z,14.20
2023-01-20T10:25:52.452Z,16.55
2023-01-20T10:28:24.683Z,17.05
2023-01-20T10:30:52.318Z,16.27
2023-01-20T10:33:22.178Z,17.45
2023-01-20T10:35:52.860Z,12.93
2023-01-20T10:38:23.857Z,16.17
2023-01-20T10:40:54.932Z,17.90
2023-01-20T10:43:22.561Z,17.38
2023-01-20T10:46:18.542Z,16.17
2023-01-20T10:49:00.445Z,15.43
2023-01-20T10:51:34.323Z,15.88
2023-01-20T10:54:10.566Z,19.75
2023-01-20T10:56:43.747Z,15.65
2023-01-20T10:59:15.342Z,16.02
2023-01-20T11:01:44.278Z,18.05
2023-01-20T11:04:18.355Z,18.75
2023-01-20T11:06:50.308Z,19.10
2023-01-20T11:09:21.855Z,14.77
2023-01-20T11:11:49.491Z,15.18
2023-01-20T11:14:17.076Z,16.83
2023-01-20T11:16:48.087Z,17.92
2023-01-20T11:19:15.836Z,13.77
2023-01-20T11:21:43.311Z,14.00
2023-01-20T11:27:12.053Z,13.82
2023-01-20T11:29:42.181Z,15.48
2023-01-20T11:32:25.839Z,14.02
2023-01-20T11:34:53.959Z,13.88
2023-01-20T11:37:22.576Z,13.13
2023-01-20T11:40:00.237Z,14.57
2023-01-20T11:42:30.685Z,13.25
2023-01-20T11:45:15.290Z,13.80
2023-01-20T11:47:47.064Z,15.32
2023-01-20T11:50:31.130Z,14.70
2023-01-20T11:53:20.139Z,16.00
2023-01-20T11:55:53.853Z,14.88
2023-01-20T11:58:24.451Z,14.50
2023-01-20T12:00:54.228Z,16.73
2023-01-20T12:03:39.708Z,15.18
2023-01-20T12:06:13.392Z,14.88
2023-01-20T12:08:46.770Z,15.68
2023-01-20T12:11:16.126Z,13.85
2023-01-20T12:14:07.372Z,16.02
2023-01-20T12:16:35.640Z,16.15
2023-01-20T12:19:05.869Z,15.63
2023-01-20T12:21:36.753Z,15.32
2023-01-20T12:24:10.705Z,13.05
2023-01-20T12:26:38.252Z,13.50
2023-01-20T12:29:12.943Z,12.80
2023-01-20T12:31:40.592Z,17.63
2023-01-20T12:34:12.272Z,18.67
2023-01-20T12:37:03.302Z,19.27
2023-01-20T12:39:44.274Z,16.58
2023-01-20T12:42:24.008Z,12.90
2023-01-20T12:44:54.941Z,15.90
2023-01-20T12:47:35.443Z,15.43
2023-01-20T12:50:15.147Z,14.98
2023-01-20T12:52:52.136Z,17.20
2023-01-20T12:55:32.844Z,15.43
2023-01-20T12:58:09.146Z,15.02
2023-01-20T13:01:04.621Z,13.50
2023-01-20T13:03:56.615Z,16.95
2023-01-20T13:06:44.517Z,16.48
2023-01-20T13:09:25.684Z,18.73
2023-01-20T13:12:03.122Z,17.30
2023-01-20T13:14:39.221Z,17.15
2023-01-20T13:17:16.730Z,14.52
2023-01-20T13:19:47.963Z,12.68
2023-01-20T13:22:18.111Z,11.70
2023-01-20T13:24:47.522Z,13.98
2023-01-20T13:27:16.137Z,11.13
2023-01-20T13:29:53.626Z,13.15
2023-01-20T13:32:34.373Z,12.10
2023-01-20T13:35:02.971Z,11.80
2023-01-20T13:37:33.405Z,11.70
2023-01-20T13:40:01.151Z,12.75
2023-01-20T13:42:31.236Z,13.82
2023-01-20T13:45:17.664Z,12.15
2023-01-20T13:47:57.368Z,12.07
2023-01-20T13:50:27.355Z,12.23
2023-01-20T13:53:16.420Z,14.52
2023-01-20T13:56:00.477Z,11.77
2023-01-20T13:58:29.678Z,12.55
2023-01-20T14:00:58.694Z,15.30
2023-01-20T14:03:30.011Z,14.70
2023-01-20T14:06:00.578Z,15.32
2023-01-20T14:08:30.557Z,17.77
2023-01-20T14:11:08.831Z,13.75
2023-01-20T14:13:36.335Z,12.85
2023-01-20T14:16:03.903Z,12.32
2023-01-20T14:18:32.892Z,13.05
2023-01-20T14:21:03.905Z,13.25
2023-01-20T14:23:35.184Z,13.20
2023-01-20T14:26:05.678Z,13.20
2023-01-20T14:28:35.462Z,13.63
2023-01-20T14:31:13.834Z,12.70
2023-01-20T14:33:47.075Z,13.65
2023-01-20T14:36:18.720Z,13.65
2023-01-20T14:38:57.286Z,13.85
2023-01-20T14:41:30.826Z,13.35
2023-01-20T14:43:58.839Z,12.93
2023-01-20T14:46:27.558Z,13.30
2023-01-20T14:48:57.123Z,12.95
2023-01-20T14:51:24.761Z,14.35
2023-01-20T14:54:44.903Z,14.35
2023-01-20T14:57:20.011Z,14.45
2023-01-20T14:59:47.528Z,14.15
2023-01-20T15:02:20.577Z,13.70
2023-01-20T15:07:19.481Z,12.27
2023-01-20T15:09:52.724Z,12.50
2023-01-20T15:12:40.350Z,14.18
2023-01-20T15:15:14.825Z,16.23
2023-01-20T15:18:15.886Z,14.52
2023-01-20T15:20:46.791Z,13.32
2023-01-20T15:23:31.295Z,13.95
2023-01-20T15:26:08.489Z,14.48
2023-01-20T15:28:38.732Z,17.35
2023-01-20T15:31:06.448Z,15.77
2023-01-20T15:33:33.954Z,16.23
2023-01-20T15:36:02.745Z,17.13
2023-01-20T15:38:33.016Z,14.00
2023-01-20T15:41:00.495Z,12.23
2023-01-20T15:43:28.011Z,25.63
2023-01-20T15:45:55.466Z,51.08
2023-01-20T15:48:24.374Z,58.78
2023-01-20T15:50:51.948Z,44.78
2023-01-20T15:53:20.735Z,29.13
2023-01-20T15:55:51.716Z,20.08
2023-01-20T15:58:25.337Z,19.20
2023-01-20T16:00:53.283Z,33.63
2023-01-20T16:03:20.785Z,24.42
2023-01-20T16:05:49.439Z,24.17
2023-01-20T16:08:18.031Z,35.40
2023-01-20T16:10:46.930Z,35.80
2023-01-20T16:13:14.890Z,27.05
2023-01-20T16:15:43.410Z,15.52
2023-01-20T16:18:15.458Z,16.13
2023-01-20T16:20:43.895Z,20.05
2023-01-20T16:23:11.863Z,20.08
2023-01-20T16:25:40.038Z,20.90
2023-01-20T16:28:15.544Z,16.23
2023-01-20T16:30:43.513Z,14.60
2023-01-20T16:33:18.935Z,15.02
2023-01-20T16:35:46.681Z,15.18
2023-01-20T16:38:15.597Z,13.15
2023-01-20T16:40:47.537Z,11.75
2023-01-20T16:43:17.512Z,11.93
2023-01-20T16:45:45.398Z,11.27
2023-01-20T16:48:12.985Z,10.63
2023-01-20T16:50:40.472Z,11.32
2023-01-20T16:53:07.950Z,11.65
2023-01-20T16:55:35.436Z,14.90
2023-01-20T16:58:03.012Z,16.25
2023-01-20T17:00:31.809Z,13.55
2023-01-20T17:02:59.292Z,12.23
2023-01-20T17:05:28.386Z,14.10
2023-01-20T17:07:57.614Z,15.35
2023-01-20T17:10:26.291Z,17.50
2023-01-20T17:12:54.357Z,16.35
2023-01-20T17:15:22.400Z,18.88
2023-01-20T17:17:51.905Z,16.95
2023-01-20T17:20:19.852Z,16.55
2023-01-20T17:22:47.775Z,16.60
2023-01-20T17:25:17.935Z,15.35
2023-01-20T17:27:45.844Z,15.45
2023-01-20T17:30:14.152Z,14.73
2023-01-20T17:32:42.190Z,14.43
2023-01-20T17:35:11.421Z,14.18
2023-01-20T17:37:38.934Z,14.73
2023-01-20T17:40:07.474Z,14.75
2023-01-20T17:42:34.946Z,19.70
2023-01-20T17:45:06.386Z,15.35
2023-01-20T17:47:33.865Z,15.07
2023-01-20T17:50:01.354Z,17.05
2023-01-20T17:52:30.230Z,16.90
2023-01-20T17:54:57.724Z,15.25
2023-01-20T17:57:27.015Z,14.75
2023-01-20T17:59:54.703Z,13.85
2023-01-20T18:02:22.397Z,19.85
2023-01-20T18:04:49.932Z,15.50
2023-01-20T18:07:17.660Z,15.77
2023-01-20T18:09:46.433Z,17.15
2023-01-20T18:12:14.399Z,13.25
2023-01-20T18:14:41.881Z,16.45
2023-01-20T18:17:09.406Z,16.25
2023-01-20T18:19:36.905Z,24.92
2023-01-20T18:22:06.948Z,14.90
2023-01-20T18:24:34.595Z,22.02
2023-01-20T18:27:03.380Z,15.95
2023-01-20T18:29:31.189Z,16.10
2023-01-20T18:31:59.030Z,14.70
2023-01-20T18:34:26.543Z,15.18
2023-01-20T18:36:54.178Z,14.63
2023-01-20T18:39:23.593Z,21.90
2023-01-20T18:41:52.265Z,15.43
2023-01-20T18:44:23.099Z,36.08
2023-01-20T18:46:50.807Z,32.42
2023-01-20T18:49:18.584Z,18.23
2023-01-20T18:51:46.106Z,23.58
2023-01-20T18:54:14.811Z,16.42
2023-01-20T18:56:42.294Z,18.27
2023-01-20T18:59:11.069Z,13.35
2023-01-20T19:01:41.222Z,17.52
2023-01-20T19:04:10.723Z,24.23
2023-01-20T19:06:41.850Z,26.38
2023-01-20T19:09:09.893Z,29.88
2023-01-20T19:11:39.583Z,32.75
2023-01-20T19:14:07.903Z,20.58
2023-01-20T19:16:37.822Z,15.55
2023-01-20T19:19:07.892Z,17.38
2023-01-20T19:21:36.563Z,16.08
2023-01-20T19:24:06.074Z,17.30
2023-01-20T19:26:35.463Z,16.67
2023-01-20T19:29:04.913Z,19.15
2023-01-20T19:31:34.207Z,17.75
2023-01-20T19:34:01.995Z,17.13
2023-01-20T19:36:30.805Z,32.80
2023-01-20T19:39:00.141Z,34.72
2023-01-20T19:41:29.215Z,52.13
2023-01-20T19:43:57.978Z,51.25
2023-01-20T19:46:27.221Z,19.50
2023-01-20T19:48:56.486Z,17.85
2023-01-20T19:51:24.456Z,19.42
2023-01-20T19:53:57.802Z,26.67
2023-01-20T19:56:26.525Z,34.63
2023-01-20T19:58:55.255Z,24.42
2023-01-20T20:01:24.850Z,22.42
2023-01-20T20:03:53.802Z,20.35
2023-01-20T20:06:24.101Z,49.45
2023-01-20T20:08:52.310Z,43.33
2023-01-20T20:11:21.128Z,51.33
2023-01-20T20:13:48.924Z,33.67
2023-01-20T20:16:16.570Z,35.78
2023-01-20T20:18:44.181Z,20.23
2023-01-20T20:21:11.846Z,26.90
2023-01-20T20:23:39.331Z,26.20
2023-01-20T20:26:06.915Z,33.13
2023-01-20T20:28:35.882Z,41.13
2023-01-20T20:31:05.991Z,37.08
2023-01-20T20:33:34.230Z,29.17
2023-01-20T20:36:06.560Z,25.92
2023-01-20T20:38:36.544Z,52.13
2023-01-20T20:41:04.774Z,24.95
2023-01-20T20:43:32.317Z,23.27
2023-01-20T20:46:01.813Z,29.67
2023-01-20T20:48:29.801Z,29.33
2023-01-20T20:50:57.445Z,26.77
2023-01-20T20:53:25.047Z,22.42
2023-01-20T20:55:55.280Z,28.92
2023-01-20T20:58:23.325Z,20.70
2023-01-20T21:00:51.746Z,28.88
2023-01-20T21:03:20.534Z,42.58
2023-01-20T21:05:49.407Z,24.52
2023-01-20T21:08:17.187Z,42.63
2023-01-20T21:10:44.666Z,46.75
2023-01-20T21:13:12.231Z,21.98
2023-01-20T21:15:39.760Z,35.13
2023-01-20T21:18:07.481Z,49.25
2023-01-20T21:20:36.318Z,67.47
2023-01-20T21:23:04.518Z,31.15
2023-01-20T21:25:32.863Z,33.05
2023-01-20T21:28:00.369Z,39.20
2023-01-20T21:30:27.939Z,34.15
2023-01-20T21:32:56.548Z,33.03
2023-01-20T21:35:24.160Z,27.50
2023-01-20T21:37:53.210Z,27.33
2023-01-20T21:40:20.803Z,30.25
2023-01-20T21:42:49.838Z,87.00
2023-01-20T21:45:16.763Z,45.50
2023-01-20T21:47:44.235Z,46.63
2023-01-20T21:50:29.735Z,53.40
2023-01-20T21:52:58.822Z,78.40
2023-01-20T21:55:26.274Z,36.15
2023-01-20T21:57:53.816Z,23.17
2023-01-20T22:00:22.003Z,22.67
2023-01-20T22:02:49.773Z,20.60
2023-01-20T22:05:18.282Z,21.40
2023-01-20T22:07:47.795Z,22.38
2023-01-20T22:10:17.534Z,67.03
2023-01-20T22:12:45.399Z,57.92
2023-01-20T22:15:13.470Z,96.10
2023-01-20T22:17:41.368Z,50.05
2023-01-20T22:20:10.671Z,24.80
2023-01-20T22:22:38.411Z,25.45
2023-01-20T22:25:07.370Z,34.92
2023-01-20T22:27:36.355Z,32.70
2023-01-20T22:30:04.174Z,62.03
2023-01-20T22:32:31.880Z,61.95
2023-01-20T22:34:59.637Z,33.97
2023-01-20T22:37:27.088Z,26.42
2023-01-20T22:39:54.589Z,44.35
2023-01-20T22:42:22.040Z,27.35
2023-01-20T22:44:50.926Z,24.58
2023-01-20T22:47:18.395Z,38.30
2023-01-20T22:49:45.851Z,43.30
2023-01-20T22:52:13.529Z,27.50
2023-01-20T22:54:40.967Z,27.05
2023-01-20T22:57:08.428Z,48.30
2023-01-20T22:59:36.475Z,33.08
2023-01-20T23:02:05.544Z,39.58
2023-01-20T23:04:33.136Z,28.55
2023-01-20T23:07:00.793Z,33.88
2023-01-20T23:09:28.535Z,24.60
2023-01-20T23:11:56.012Z,44.38
2023-01-20T23:14:51.797Z,38.33
2023-01-20T23:17:20.592Z,48.63
2023-01-20T23:19:48.044Z,35.10
2023-01-20T23:22:15.550Z,44.05
2023-01-20T23:24:43.032Z,27.88
2023-01-20T23:27:10.655Z,24.92
2023-01-20T23:29:38.309Z,36.47
2023-01-20T23:32:06.382Z,25.75
2023-01-20T23:34:35.173Z,24.42
2023-01-20T23:37:02.821Z,29.95
2023-01-20T23:39:30.303Z,26.08
2023-01-20T23:41:57.887Z,26.30
2023-01-20T23:44:25.491Z,36.92
2023-01-20T23:46:53.195Z,27.30
2023-01-20T23:49:22.615Z,34.13
2023-01-20T23:51:51.691Z,40.58
2023-01-20T23:54:19.303Z,31.33
2023-01-20T23:56:47.003Z,35.40
2023-01-20T23:59:14.587Z,30.50
